Time;durP1;ratioP1;P1;durP2;ratioP2;P2;SDS_P1;SDS_P2;PMS_P1;PMS_P2;Temp;Humidity;BMP_temperature;BMP_pressure;BME280_temperature;BME280_humidity;BME280_pressure;Samples;Min_cycle;Max_cycle;Signal;HPM_P1;HPM_P2
2022/05/03 00:01:02;;;;;;;;;25.75;24.25;;;;;16.80;41.97;101336.19;5077850;27;45231;-70
2022/05/03 00:03:38;;;;;;;;;26.75;24.75;;;;;16.44;41.86;101272.31;5077018;27;45334;-76
2022/05/03 00:06:34;;;;;;;;;34.00;29.50;;;;;16.83;41.89;101334.38;5079129;27;45410;-72
2022/05/03 00:09:06;;;;;;;;;28.50;27.25;;;;;16.81;41.83;101330.88;5081675;27;45390;-74
2022/05/03 00:11:36;;;;;;;;;29.25;27.25;;;;;16.68;42.10;101313.41;5061703;28;45487;-75
2022/05/03 00:14:14;;;;;;;;;32.50;26.50;;;;;16.81;42.00;101330.88;5080395;28;45488;-72
2022/05/03 00:16:41;;;;;;;;;31.75;28.00;;;;;16.81;42.05;101330.03;5079732;27;45479;-74
2022/05/03 00:19:09;;;;;;;;;27.75;26.00;;;;;16.62;41.94;101298.50;5061676;28;45617;-75
2022/05/03 00:21:36;;;;;;;;;29.75;28.25;;;;;16.79;42.10;101321.22;5080235;27;45444;-74
2022/05/03 00:24:05;;;;;;;;;31.75;26.75;;;;;16.79;41.85;101318.59;5080520;27;45445;-75
2022/05/03 00:26:32;;;;;;;;;27.50;24.75;;;;;16.78;42.13;101317.69;5080954;27;45535;-75
2022/05/03 00:28:59;;;;;;;;;36.75;28.25;;;;;16.75;42.13;101326.53;5079937;28;45558;-76
2022/05/03 00:31:26;;;;;;;;;35.00;26.50;;;;;16.73;42.07;101316.88;5062635;28;45455;-73
2022/05/03 00:33:57;;;;;;;;;32.00;25.25;;;;;16.26;42.22;101244.38;5083302;27;45315;-74
2022/05/03 00:36:23;;;;;;;;;27.25;26.00;;;;;16.58;42.09;101302.06;5080354;27;46005;-73
2022/05/03 00:38:51;;;;;;;;;28.25;25.75;;;;;16.65;42.31;101313.44;5081212;27;45306;-75
2022/05/03 00:41:35;;;;;;;;;27.75;24.00;;;;;16.62;42.28;101309.06;5080769;28;45386;-75
2022/05/03 00:47:20;;;;;;;;;29.00;26.50;;;;;16.62;42.34;101310.84;5080036;27;45269;-73
2022/05/03 00:50:02;;;;;;;;;29.50;26.25;;;;;16.60;42.30;101310.88;5079678;28;45546;-75
2022/05/03 00:52:37;;;;;;;;;36.75;27.75;;;;;16.52;41.98;101297.75;5079819;28;45422;-73
2022/05/03 00:55:21;;;;;;;;;32.50;26.25;;;;;16.59;42.26;101308.25;5079917;28;45449;-74
2022/05/03 00:58:28;;;;;;;;;25.00;20.50;;;;;16.57;42.12;101302.97;5079081;28;45390;-74
2022/05/03 01:00:57;;;;;;;;;32.50;27.00;;;;;16.56;42.43;101308.28;5065155;27;45366;-72
2022/05/03 01:03:33;;;;;;;;;31.00;26.75;;;;;16.24;42.41;101257.59;5079889;27;45515;-75
2022/05/03 01:06:21;;;;;;;;;30.25;27.75;;;;;16.53;42.25;101301.28;5079740;27;45365;-71
2022/05/03 01:09:06;;;;;;;;;31.75;28.25;;;;;16.51;42.49;101308.34;5078938;27;45528;-71
2022/05/03 01:11:41;;;;;;;;;25.75;25.25;;;;;16.50;42.17;101303.97;5078961;28;45503;-72
2022/05/03 01:14:55;;;;;;;;;30.75;27.50;;;;;16.49;42.02;101305.75;5079120;27;45948;-71
2022/05/03 01:17:45;;;;;;;;;33.25;26.75;;;;;16.47;42.32;101301.38;5078900;28;45532;-74
2022/05/03 01:20:15;;;;;;;;;23.00;21.50;;;;;16.44;42.47;101293.47;5074026;27;45436;-72
2022/05/03 01:22:50;;;;;;;;;27.75;26.50;;;;;16.41;42.38;101304.94;5060606;28;45473;-72
2022/05/03 01:25:42;;;;;;;;;31.75;28.00;;;;;16.41;42.55;101304.09;5079368;27;45374;-70
2022/05/03 01:28:13;;;;;;;;;28.25;24.00;;;;;16.39;42.69;101301.44;5078270;27;45531;-75
2022/05/03 01:30:47;;;;;;;;;28.00;26.00;;;;;16.38;42.54;101298.84;5079001;28;45733;-72
2022/05/03 01:33:18;;;;;;;;;33.50;32.00;;;;;16.36;42.39;101297.97;5079117;28;45467;-71
2022/05/03 01:35:50;;;;;;;;;28.75;28.75;;;;;16.30;42.68;101286.59;5060506;28;45440;-70
2022/05/03 01:38:29;;;;;;;;;32.75;27.50;;;;;16.33;42.69;101288.31;5078947;28;45384;-72
2022/05/03 01:41:07;;;;;;;;;27.75;20.25;;;;;16.34;42.63;101282.13;5078825;27;45982;-73
2022/05/03 01:43:59;;;;;;;;;31.50;27.50;;;;;16.32;42.35;101282.16;5087938;27;45318;-71
2022/05/03 01:46:29;;;;;;;;;29.25;27.75;;;;;16.31;42.57;101287.47;5084393;27;45350;-70
2022/05/03 01:52:29;;;;;;;;;35.75;28.75;;;;;16.28;42.42;101288.38;5078761;28;45657;-74
2022/05/03 01:55:03;;;;;;;;;31.50;24.75;;;;;16.26;42.43;101274.31;5078789;28;45458;-73
2022/05/03 01:57:50;;;;;;;;;27.25;23.25;;;;;16.25;42.49;101284.88;5078381;27;45405;-71
2022/05/03 02:00:17;;;;;;;;;30.25;26.75;;;;;16.19;42.65;101267.34;5078607;28;45551;-73
2022/05/03 02:03:02;;;;;;;;;28.75;26.50;;;;;16.19;42.73;101269.13;5059770;28;46746;-75
2022/05/03 02:05:53;;;;;;;;;30.25;26.25;;;;;16.14;42.72;101269.19;5078412;28;45259;-74
2022/05/03 02:08:23;;;;;;;;;28.25;25.25;;;;;16.13;42.65;101271.84;5060357;28;45334;-70
2022/05/03 02:11:11;;;;;;;;;27.50;25.75;;;;;16.10;42.90;101276.25;5078457;27;45474;-77
2022/05/03 02:16:45;;;;;;;;;28.75;26.50;;;;;16.03;42.93;101258.72;5078200;28;45283;-69
2022/05/03 02:19:38;;;;;;;;;34.50;25.25;;;;;16.04;42.79;101275.44;5078264;28;45464;-70
2022/05/03 02:22:25;;;;;;;;;29.50;24.00;;;;;16.03;42.88;101279.00;5078133;27;45283;-74
2022/05/03 02:25:06;;;;;;;;;32.75;27.00;;;;;15.98;42.78;101278.19;5077538;27;46287;-71
2022/05/03 02:27:35;;;;;;;;;28.00;26.00;;;;;16.01;42.75;101280.78;5058874;28;45531;-73
2022/05/03 02:30:03;;;;;;;;;24.00;20.75;;;;;16.02;42.85;101277.28;5077999;27;45624;-73
2022/05/03 02:32:44;;;;;;;;;28.00;25.75;;;;;16.00;42.90;101286.97;5078190;27;45362;-75
2022/05/03 02:35:17;;;;;;;;;26.25;20.75;;;;;15.95;43.16;101275.59;5077665;27;45707;-75
2022/05/03 02:37:55;;;;;;;;;29.25;24.50;;;;;15.97;42.88;101293.16;5077665;27;45891;-73
2022/05/03 02:40:25;;;;;;;;;21.50;21.25;;;;;15.96;42.76;101286.13;5077810;27;45565;-74
2022/05/03 02:42:52;;;;;;;;;23.75;19.75;;;;;15.95;43.01;101279.09;5078028;28;45389;-71
2022/05/03 02:45:18;;;;;;;;;24.25;22.75;;;;;15.70;42.89;101246.78;5059168;28;46173;-71
2022/05/03 02:47:50;;;;;;;;;29.00;27.25;;;;;15.94;42.77;101284.38;5059171;28;45999;-70
2022/05/03 02:50:22;;;;;;;;;28.75;26.00;;;;;15.89;42.92;101277.38;5059804;28;45555;-70
2022/05/03 02:53:02;;;;;;;;;28.00;21.00;;;;;15.90;43.01;101286.22;5078303;27;45434;-69
2022/05/03 02:55:50;;;;;;;;;26.75;24.50;;;;;15.88;43.13;101282.69;5078045;28;45510;-71
2022/05/03 02:58:58;;;;;;;;;28.75;26.50;;;;;15.85;42.54;101288.91;5077692;27;45417;-70
2022/05/03 03:01:48;;;;;;;;;34.75;26.75;;;;;15.81;43.01;101286.31;5048659;28;45377;-74
2022/05/03 03:04:32;;;;;;;;;38.00;30.50;;;;;15.74;43.28;101287.25;5077857;28;45347;-73
2022/05/03 03:06:59;;;;;;;;;25.75;22.75;;;;;15.45;43.44;101230.31;5058946;28;47074;-76
2022/05/03 03:09:50;;;;;;;;;34.50;27.50;;;;;15.70;43.39;101275.84;5059593;28;45386;-71
2022/05/03 03:12:40;;;;;;;;;27.75;22.50;;;;;15.62;43.17;101269.75;5078337;27;45396;-75
2022/05/03 03:15:08;;;;;;;;;24.25;23.00;;;;;15.70;43.08;101278.47;5077492;28;45598;-74
2022/05/03 03:17:41;;;;;;;;;24.25;24.00;;;;;15.64;43.39;101275.88;5077051;27;47796;-74
2022/05/03 03:20:08;;;;;;;;;30.25;27.75;;;;;15.68;43.18;101285.50;5076728;27;45555;-75
2022/05/03 03:22:38;;;;;;;;;26.00;23.75;;;;;15.51;43.55;101255.78;5077460;28;45480;-74
2022/05/03 03:25:06;;;;;;;;;26.75;20.75;;;;;15.69;43.10;101285.50;5059246;28;45488;-76
2022/05/03 03:27:33;;;;;;;;;30.00;24.25;;;;;15.66;43.61;101277.63;5076952;27;45421;-75
2022/05/03 03:30:02;;;;;;;;;36.00;28.50;;;;;15.67;43.67;101287.28;5076734;27;45413;-73
2022/05/03 03:32:28;;;;;;;;;27.75;27.00;;;;;15.56;43.53;101265.38;5076812;27;45442;-76
2022/05/03 03:34:55;;;;;;;;;32.50;26.00;;;;;15.65;43.44;101278.50;5076958;28;45423;-76
2022/05/03 03:37:26;;;;;;;;;29.50;26.50;;;;;15.66;43.71;101277.63;5076609;28;45922;-74
2022/05/03 03:39:51;;;;;;;;;30.75;26.50;;;;;15.68;43.47;101278.50;5078454;27;45401;-76
2022/05/03 03:42:17;;;;;;;;;30.25;25.00;;;;;15.58;43.23;101249.53;5080565;28;46108;-77
2022/05/03 03:44:43;;;;;;;;;33.50;25.75;;;;;15.66;43.18;101271.44;5080582;27;45380;-77
2022/05/03 03:47:09;;;;;;;;;32.00;28.75;;;;;15.67;43.30;101278.50;5080381;27;45511;-75
2022/05/03 03:49:35;;;;;;;;;29.75;26.00;;;;;15.63;43.46;101269.72;5080690;28;45405;-75
2022/05/03 03:52:02;;;;;;;;;26.00;22.25;;;;;15.66;43.41;101268.81;5062199;28;45345;-75
2022/05/03 03:54:32;;;;;;;;;28.50;27.00;;;;;15.64;43.42;101268.84;5080541;28;45379;-74
2022/05/03 03:56:59;;;;;;;;;27.75;24.50;;;;;15.54;43.57;101250.44;5061840;28;46554;-73
2022/05/03 03:59:30;;;;;;;;;23.50;23.00;;;;;15.26;43.50;101200.59;5080471;27;45181;-75
2022/05/03 04:01:57;;;;;;;;;30.75;26.75;;;;;15.52;43.16;101257.50;5062386;28;45437;-73
2022/05/03 04:04:30;;;;;;;;;34.00;28.25;;;;;15.56;43.25;101260.09;5080737;28;45392;-75
2022/05/03 04:06:56;;;;;;;;;32.75;27.50;;;;;15.62;43.38;101275.91;5080400;27;46350;-73
2022/05/03 04:09:21;;;;;;;;;23.25;20.50;;;;;15.63;43.57;101280.28;5062067;28;45371;-76
2022/05/03 04:11:47;;;;;;;;;34.00;27.00;;;;;15.54;43.52;101266.28;5080411;27;45292;-75
2022/05/03 04:14:14;;;;;;;;;27.50;25.75;;;;;15.59;43.56;101280.31;5080661;27;45932;-74
2022/05/03 04:16:41;;;;;;;;;37.00;26.75;;;;;15.55;43.45;101278.63;5079545;28;45383;-74
2022/05/03 04:19:08;;;;;;;;;30.00;26.75;;;;;15.50;44.56;101273.38;5061571;28;45504;-74
2022/05/03 04:21:34;;;;;;;;;25.25;23.75;;;;;15.50;43.43;101283.06;5079968;27;45414;-73
2022/05/03 04:24:00;;;;;;;;;33.75;29.50;;;;;15.36;43.86;101260.31;5079872;27;45521;-76
2022/05/03 04:26:29;;;;;;;;;27.25;25.00;;;;;15.27;43.89;101253.34;5087128;27;46103;-75
2022/05/03 04:29:02;;;;;;;;;31.00;27.00;;;;;15.37;43.67;101269.09;5092986;27;44793;-73
2022/05/03 04:31:28;;;;;;;;;33.25;28.75;;;;;15.36;43.83;101273.50;5086700;28;45319;-73
2022/05/03 04:33:55;;;;;;;;;36.25;29.50;;;;;15.31;43.68;101264.75;5080754;27;45256;-74
2022/05/03 04:36:22;;;;;;;;;31.00;27.75;;;;;15.37;44.05;101284.94;5079421;27;46253;-73
2022/05/03 04:38:48;;;;;;;;;23.00;20.50;;;;;15.27;44.13;101268.31;5069120;27;45392;-70
2022/05/03 04:41:14;;;;;;;;;34.00;29.75;;;;;15.34;43.57;101284.97;5080487;28;45343;-73
2022/05/03 04:43:41;;;;;;;;;30.50;30.50;;;;;15.10;43.81;101246.47;5061951;28;45495;-73
2022/05/03 04:46:06;;;;;;;;;32.50;27.00;;;;;15.20;43.90;101267.47;5080353;28;46369;-72
2022/05/03 04:48:32;;;;;;;;;30.00;28.25;;;;;14.99;44.10;101231.59;5083002;27;45684;-72
2022/05/03 04:50:57;;;;;;;;;33.00;28.25;;;;;15.33;43.78;101273.53;5082648;28;45554;-72
2022/05/03 04:53:23;;;;;;;;;35.00;26.25;;;;;15.31;44.02;101279.72;5061136;28;45366;-73
2022/05/03 04:55:49;;;;;;;;;28.50;26.25;;;;;15.14;43.90;101246.44;5079541;28;45523;-73
2022/05/03 04:58:15;;;;;;;;;31.75;30.25;;;;;15.24;43.95;101279.78;5079738;28;45272;-71
2022/05/03 05:00:50;;;;;;;;;34.50;31.50;;;;;15.07;44.13;101263.22;5079530;28;45529;-72
2022/05/03 05:03:16;;;;;;;;;36.50;27.25;;;;;15.12;44.22;101274.59;5078791;27;45495;-71
2022/05/03 05:05:41;;;;;;;;;33.50;28.50;;;;;15.09;44.37;101266.72;5079838;27;45394;-70
2022/05/03 05:08:07;;;;;;;;;36.50;30.75;;;;;15.17;44.47;101283.34;5081303;27;45397;-73
2022/05/03 05:10:33;;;;;;;;;24.75;24.00;;;;;15.16;44.26;101283.34;5079679;28;45370;-72
2022/05/03 05:13:01;;;;;;;;;27.25;26.25;;;;;15.13;44.35;101275.47;5079201;28;45615;-73
2022/05/03 05:15:28;;;;;;;;;30.25;26.50;;;;;15.08;44.22;101272.88;5054975;28;47775;-74
2022/05/03 05:17:58;;;;;;;;;28.50;26.00;;;;;15.24;43.94;101295.59;5078950;27;45406;-71
2022/05/03 05:20:25;;;;;;;;;30.75;28.00;;;;;15.34;44.50;101300.81;5061002;28;45270;-75
2022/05/03 05:22:51;;;;;;;;;39.75;32.25;;;;;15.30;44.36;101292.03;5079289;28;45379;-73
2022/05/03 05:25:17;;;;;;;;;30.75;27.25;;;;;15.02;44.03;101259.75;5079300;28;45188;-70
2022/05/03 05:27:43;;;;;;;;;30.50;27.50;;;;;15.27;44.00;101302.63;5079371;28;45398;-72
2022/05/03 05:30:09;;;;;;;;;33.50;29.00;;;;;15.32;44.34;101307.84;5080502;27;45414;-73
2022/05/03 05:32:35;;;;;;;;;34.00;27.75;;;;;15.32;43.99;101310.50;5081633;27;45539;-73
2022/05/03 05:35:04;;;;;;;;;31.00;28.25;;;;;15.25;44.31;101299.13;5082110;27;45423;-70
2022/05/03 05:37:30;;;;;;;;;36.00;30.00;;;;;15.27;44.46;101305.25;5082134;28;45306;-72
2022/05/03 05:39:55;;;;;;;;;28.50;25.00;;;;;15.16;44.40;101291.25;5082626;28;45473;-73
2022/05/03 05:42:21;;;;;;;;;34.25;28.25;;;;;15.29;44.52;101311.41;5071127;28;45414;-70
2022/05/03 05:44:47;;;;;;;;;31.00;26.75;;;;;15.35;44.53;101319.28;5070807;28;46719;-73
2022/05/03 05:47:13;;;;;;;;;32.75;29.00;;;;;15.26;44.41;101304.38;5079814;28;45363;-71
2022/05/03 05:49:40;;;;;;;;;28.00;25.75;;;;;15.42;44.13;101325.34;5060230;28;45316;-75
2022/05/03 05:54:51;;;;;;;;;33.00;28.25;;;;;15.48;44.23;101315.63;5065420;28;45726;-72
2022/05/03 05:57:20;;;;;;;;;32.75;27.75;;;;;15.51;44.03;101317.34;5061661;28;45542;-75
2022/05/03 05:59:46;;;;;;;;;34.50;31.25;;;;;15.30;44.06;101283.25;5061957;28;45569;-70
2022/05/03 06:02:14;;;;;;;;;31.75;27.25;;;;;15.60;43.86;101319.91;5081103;28;45417;-74
2022/05/03 06:04:54;;;;;;;;;36.25;25.25;;;;;15.65;43.69;101320.75;5079628;27;45238;-70
2022/05/03 06:07:20;;;;;;;;;32.75;28.00;;;;;15.65;44.08;101327.78;5079482;27;45322;-76
2022/05/03 06:09:46;;;;;;;;;36.00;29.25;;;;;15.51;44.08;101306.81;5080160;28;45512;-70
2022/05/03 06:12:12;;;;;;;;;36.00;28.75;;;;;15.62;44.09;101335.75;5061523;28;45390;-76
2022/05/03 06:14:40;;;;;;;;;31.25;26.75;;;;;15.66;44.07;101330.44;5080058;28;45449;-74
2022/05/03 06:17:06;;;;;;;;;26.75;22.50;;;;;15.64;44.02;101340.13;5080266;27;45295;-75
2022/05/03 06:19:31;;;;;;;;;25.75;21.75;;;;;15.60;46.71;101324.31;5079068;28;45366;-71
2022/05/03 06:22:19;;;;;;;;;37.25;28.50;;;;;15.72;44.98;101333.94;5078882;27;45279;-76
2022/05/03 06:24:47;;;;;;;;;27.75;26.00;;;;;15.83;46.02;101332.94;5076194;27;46217;-78
2022/05/03 06:27:14;;;;;;;;;36.50;30.50;;;;;15.33;44.55;101239.25;5060304;28;45408;-74
2022/05/03 06:29:39;;;;;;;;;34.00;31.25;;;;;15.98;44.32;101341.59;5078031;28;45359;-75
2022/05/03 06:32:05;;;;;;;;;33.75;28.75;;;;;16.00;43.74;101340.69;5079208;27;45326;-73
2022/05/03 06:34:31;;;;;;;;;28.00;25.75;;;;;15.84;43.65;101316.19;5079593;27;46168;-77
2022/05/03 06:36:58;;;;;;;;;34.75;29.50;;;;;16.02;43.41;101346.84;5078410;27;45495;-71
2022/05/03 06:39:24;;;;;;;;;43.50;33.75;;;;;15.99;43.58;101346.88;5078602;28;45434;-74
2022/05/03 06:41:50;;;;;;;;;39.25;29.50;;;;;15.97;43.92;101346.00;5078656;27;45473;-77
2022/05/03 06:44:16;;;;;;;;;36.00;31.75;;;;;15.99;43.58;101341.59;5078145;28;46811;-77
2022/05/03 06:46:42;;;;;;;;;35.50;30.25;;;;;15.99;43.99;101352.16;5078473;28;45292;-76
2022/05/03 06:49:10;;;;;;;;;42.50;31.50;;;;;15.86;43.79;101332.91;5080639;28;45271;-76
2022/05/03 06:51:47;;;;;;;;;39.25;34.50;;;;;15.74;43.91;101321.59;5079849;27;45338;-69
2022/05/03 06:54:23;;;;;;;;;34.75;31.75;;;;;15.79;43.71;101331.22;5078688;27;45489;-76
2022/05/03 06:56:48;;;;;;;;;32.75;29.50;;;;;15.77;45.12;101326.84;5080969;27;45484;-74
2022/05/03 06:59:14;;;;;;;;;33.00;26.25;;;;;15.81;45.66;101332.06;5062115;28;45207;-75
2022/05/03 07:01:40;;;;;;;;;32.50;30.50;;;;;15.87;44.40;101320.56;5079910;27;45311;-74
2022/05/03 07:04:05;;;;;;;;;26.50;26.50;;;;;15.91;44.00;101324.94;5060421;28;45897;-75
2022/05/03 07:06:31;;;;;;;;;33.25;29.75;;;;;15.98;43.38;101334.53;5077910;28;45479;-75
2022/05/03 07:08:56;;;;;;;;;34.50;28.50;;;;;16.03;44.00;101337.13;5077960;28;45397;-74
2022/05/03 07:11:22;;;;;;;;;36.00;26.75;;;;;16.16;43.90;101353.72;5077891;27;45265;-73
2022/05/03 07:13:48;;;;;;;;;30.50;28.50;;;;;16.21;44.08;101359.84;5081823;27;45258;-72
2022/05/03 07:16:14;;;;;;;;;30.50;28.00;;;;;16.23;45.67;101355.38;5084689;28;45314;-74
2022/05/03 07:24:08;;;;;;;;;30.50;25.50;;;;;16.50;44.05;101352.44;5057604;28;45235;-77
2022/05/03 07:26:35;;;;;;;;;34.50;31.50;;;;;16.62;43.41;101371.69;5056447;28;45561;-70
2022/05/03 07:29:00;;;;;;;;;35.00;32.25;;;;;16.60;43.37;101361.13;5037987;28;45418;-71
2022/05/03 07:31:29;;;;;;;;;28.00;25.75;;;;;16.62;43.14;101359.31;5056213;28;45628;-73
2022/05/03 07:33:54;;;;;;;;;34.50;28.50;;;;;16.73;42.90;101365.34;5056327;28;46235;-73
2022/05/03 07:36:27;;;;;;;;;35.25;28.50;;;;;16.72;42.88;101363.59;5055983;28;45555;-73
2022/05/03 07:38:53;;;;;;;;;34.50;29.00;;;;;16.81;42.71;101375.00;5056554;28;45358;-72
2022/05/03 07:41:19;;;;;;;;;31.25;30.25;;;;;16.64;42.57;101336.38;5057014;28;45477;-72
2022/05/03 07:43:44;;;;;;;;;39.75;28.50;;;;;16.56;42.60;101313.56;5056980;28;45570;-73
2022/05/03 07:46:10;;;;;;;;;33.25;24.75;;;;;16.67;42.48;101331.03;5056296;28;45890;-71
2022/05/03 07:48:36;;;;;;;;;31.50;24.25;;;;;16.91;42.32;101360.72;5056171;28;45389;-68
2022/05/03 07:51:01;;;;;;;;;30.50;29.25;;;;;16.94;42.28;101377.44;5038426;28;45347;-73
2022/05/03 07:53:27;;;;;;;;;37.75;30.50;;;;;16.85;42.49;101359.06;5038437;28;47546;-73
2022/05/03 07:55:53;;;;;;;;;29.50;27.25;;;;;16.94;42.07;101363.31;5056974;28;45399;-71
2022/05/03 07:58:19;;;;;;;;;33.50;29.50;;;;;17.04;42.18;101372.91;5057440;28;45360;-73
2022/05/03 08:00:45;;;;;;;;;32.00;27.75;;;;;16.93;42.24;101343.94;5056807;28;45683;-73
2022/05/03 08:03:13;;;;;;;;;29.75;26.00;;;;;17.13;41.76;101370.13;5055668;28;45482;-70
2022/05/03 08:05:38;;;;;;;;;34.00;25.25;;;;;17.22;41.47;101363.78;5055632;28;45395;-70
2022/05/03 08:08:04;;;;;;;;;32.00;26.75;;;;;17.33;41.74;101369.81;5056175;28;45367;-75
2022/05/03 08:10:30;;;;;;;;;21.75;21.25;;;;;17.36;41.68;101364.44;5038061;28;45446;-72
2022/05/03 08:12:55;;;;;;;;;36.75;28.00;;;;;17.44;41.38;101371.38;5055736;28;46060;-70
2022/05/03 08:15:22;;;;;;;;;33.00;29.50;;;;;17.31;41.31;101347.75;5055853;28;45492;-72
2022/05/03 08:17:54;;;;;;;;;30.75;27.50;;;;;17.34;41.09;101352.13;5056459;28;45261;-72
2022/05/03 08:20:20;;;;;;;;;34.50;29.25;;;;;17.48;41.15;101376.63;5038375;28;45320;-71
2022/05/03 08:22:46;;;;;;;;;28.00;24.75;;;;;17.56;41.07;101379.16;5054126;28;46277;-70
2022/05/03 08:25:23;;;;;;;;;33.25;25.25;;;;;17.38;41.16;101325.56;5055400;28;45810;-71
2022/05/03 08:27:49;;;;;;;;;25.25;23.25;;;;;17.72;41.12;101382.41;5059589;28;45161;-72
2022/05/03 08:30:15;;;;;;;;;35.00;30.75;;;;;17.34;41.12;101313.28;5059739;28;45323;-72
2022/05/03 08:32:40;;;;;;;;;26.50;25.25;;;;;17.66;40.74;101343.66;5059422;28;46445;-72
2022/05/03 08:35:07;;;;;;;;;27.25;26.25;;;;;17.89;40.82;101372.44;5059365;28;45345;-72
2022/05/03 08:43:06;;;;;;;;;32.75;30.00;;;;;18.15;40.52;101366.63;5059070;28;45717;-73
2022/05/03 08:45:32;;;;;;;;;32.75;29.00;;;;;18.27;40.09;101367.28;5058729;28;45339;-73
2022/05/03 08:48:03;;;;;;;;;29.50;27.00;;;;;18.44;39.85;101371.34;5059293;28;45308;-72
2022/05/03 08:50:32;;;;;;;;;33.00;26.25;;;;;18.31;39.87;101342.47;5058984;28;45255;-73
2022/05/03 08:53:02;;;;;;;;;31.75;27.25;;;;;18.60;40.00;101371.03;5058849;28;45669;-72
2022/05/03 08:55:28;;;;;;;;;28.00;23.00;;;;;18.71;39.15;101376.09;5057544;28;45451;-74
2022/05/03 08:57:55;;;;;;;;;24.00;18.00;;;;;18.74;38.95;101368.94;5059405;28;45494;-73
2022/05/03 09:00:22;;;;;;;;;33.75;26.50;;;;;18.66;38.67;101344.38;5059397;28;45296;-73
2022/05/03 09:02:54;;;;;;;;;33.25;31.50;;;;;18.88;38.17;101365.16;5058619;28;46172;-73
2022/05/03 09:05:22;;;;;;;;;28.75;26.50;;;;;18.82;38.35;101371.47;5057625;28;45487;-73
2022/05/03 09:08:03;;;;;;;;;31.00;25.50;;;;;18.69;38.41;101362.88;5058529;28;45396;-72
2022/05/03 09:10:32;;;;;;;;;25.50;25.00;;;;;18.47;38.37;101327.09;5057471;28;45502;-72
2022/05/03 09:13:20;;;;;;;;;30.25;28.75;;;;;18.72;38.34;101362.81;5058787;28;45542;-72
2022/05/03 09:15:50;;;;;;;;;35.50;31.75;;;;;18.72;38.57;101378.75;5058865;28;45386;-70
2022/05/03 09:18:28;;;;;;;;;31.50;30.00;;;;;18.70;38.77;101382.31;5058706;28;45336;-73
2022/05/03 09:23:54;;;;;;;;;31.25;24.00;;;;;18.58;38.72;101341.00;5058163;28;45465;-72
2022/05/03 09:26:26;;;;;;;;;26.67;21.33;;;;;18.85;38.57;101377.59;5058304;28;45573;-73
2022/05/03 09:28:55;;;;;;;;;33.25;31.00;;;;;18.78;38.48;101375.09;5057151;28;45511;-73
2022/05/03 09:31:37;;;;;;;;;26.33;23.67;;;;;18.80;38.84;101371.50;5058838;28;45466;-71
2022/05/03 09:34:18;;;;;;;;;24.25;21.75;;;;;18.90;38.92;101369.53;5058349;28;46712;-73
2022/05/03 09:36:45;;;;;;;;;36.25;28.50;;;;;18.87;38.68;101347.50;5039970;28;45536;-74
2022/05/03 09:39:38;;;;;;;;;22.67;21.00;;;;;19.05;38.90;101365.63;5058080;28;45495;-72
2022/05/03 09:42:15;;;;;;;;;25.00;22.67;;;;;19.16;38.39;101352.97;5055445;28;45561;-70
2022/05/03 09:45:02;;;;;;;;;25.33;25.00;;;;;19.27;38.45;101353.59;5057945;28;46299;-71
2022/05/03 09:47:51;;;;;;;;;89.50;78.50;;;;;19.17;38.69;101327.28;5057710;28;45460;-70
2022/05/03 09:50:30;;;;;;;;;268.25;235.25;;;;;19.24;39.31;101318.28;5039263;28;45587;-75
2022/05/03 09:53:08;;;;;;;;;135.00;118.25;;;;;19.19;37.98;101293.63;5059483;28;45356;-73
2022/05/03 09:55:37;;;;;;;;;53.75;42.50;;;;;19.57;37.23;101342.25;5058269;28;45411;-72
2022/05/03 09:58:04;;;;;;;;;45.25;34.75;;;;;19.46;37.08;101324.81;5057973;28;45272;-72
2022/05/03 10:00:33;;;;;;;;;47.00;37.75;;;;;19.63;37.35;101347.41;5057747;28;45448;-73
2022/05/03 10:03:01;;;;;;;;;36.50;30.75;;;;;19.57;36.51;101324.50;5058765;28;45492;-72
2022/05/03 10:05:31;;;;;;;;;29.00;26.00;;;;;19.47;36.22;101301.75;5058259;28;45758;-72
2022/05/03 10:07:57;;;;;;;;;30.25;27.00;;;;;19.75;36.38;101335.63;5058374;28;45451;-71
2022/05/03 10:10:27;;;;;;;;;33.00;28.00;;;;;19.90;36.34;101349.34;5057842;28;45409;-73
2022/05/03 10:12:56;;;;;;;;;33.50;29.25;;;;;19.77;34.68;101326.69;5055500;28;45564;-73
2022/05/03 10:21:28;;;;;;;;;27.67;23.67;;;;;19.62;35.27;101335.03;5072388;27;45742;-73
2022/05/03 10:24:07;;;;;;;;;28.00;24.00;;;;;19.67;35.76;101328.69;5077723;27;45173;-72
2022/05/03 10:27:02;;;;;;;;;31.00;27.33;;;;;19.82;35.92;101338.06;5074620;28;45501;-74
2022/05/03 10:29:32;;;;;;;;;34.25;31.75;;;;;19.61;35.24;101301.41;5077803;27;45651;-72
2022/05/03 10:32:06;;;;;;;;;39.50;30.50;;;;;19.79;36.53;101338.16;5077286;27;45359;-75
2022/05/03 10:34:53;;;;;;;;;38.00;31.25;;;;;19.91;36.41;101335.16;5077186;28;45530;-73
2022/05/03 10:37:31;;;;;;;;;24.25;23.00;;;;;20.03;35.23;101341.94;5066963;27;45304;-73
2022/05/03 10:40:00;;;;;;;;;24.67;24.33;;;;;19.91;35.18;101316.56;5056236;28;45476;-71
2022/05/03 10:42:28;;;;;;;;;25.33;22.67;;;;;19.76;35.24;101282.41;5076452;28;45583;-71
2022/05/03 10:44:53;;;;;;;;;31.75;30.25;;;;;20.25;35.39;101333.34;5077321;28;45404;-71
2022/05/03 10:47:49;;;;;;;;;233.50;214.25;;;;;20.38;35.80;101329.41;5077121;28;45279;-74
2022/05/03 10:50:15;;;;;;;;;716.33;643.67;;;;;20.52;36.18;101324.56;5074208;28;45619;-76
2022/05/03 10:52:45;;;;;;;;;862.83;738.50;;;;;20.72;36.63;101331.09;5057332;28;45257;-76
2022/05/03 10:55:12;;;;;;;;;1332.40;1074.40;;;;;20.74;37.46;101292.88;5075941;27;45495;-75
2022/05/03 10:58:15;;;;;;;;;985.00;822.00;;;;;21.09;36.03;101327.25;5049013;28;47647;-74
2022/05/03 11:01:00;;;;;;;;;376.20;355.60;;;;;21.24;34.81;101320.59;5064196;28;45934;-74
2022/05/03 11:03:32;;;;;;;;;190.00;171.25;;;;;20.92;33.81;101253.25;5056315;28;45401;-75
2022/05/03 11:06:19;;;;;;;;;100.00;91.33;;;;;21.49;34.29;101315.31;5063916;28;45391;-74
2022/05/03 11:11:52;;;;;;;;;27.67;26.00;;;;;21.64;32.75;101319.25;5059109;28;45521;-74
2022/05/03 11:16:49;;;;;;;;;25.00;24.33;;;;;21.32;32.22;101305.19;5076691;28;45404;-73
2022/05/03 11:19:22;;;;;;;;;30.00;29.67;;;;;21.36;33.14;101310.38;5076805;27;45398;-77
2022/05/03 11:21:50;;;;;;;;;33.00;27.67;;;;;21.20;32.45;101271.84;5068905;27;46496;-75
2022/05/03 11:24:20;;;;;;;;;21.67;17.67;;;;;21.35;32.46;101283.78;5074995;28;45456;-75
2022/05/03 11:26:47;;;;;;;;;22.67;18.67;;;;;21.62;33.08;101308.66;5076594;28;45243;-73
2022/05/03 11:29:14;;;;;;;;;21.33;19.67;;;;;21.67;32.54;101289.84;5072835;28;45554;-74
2022/05/03 11:31:46;;;;;;;;;18.33;17.00;;;;;21.81;32.50;101282.22;5056851;27;45351;-73
2022/05/03 11:34:12;;;;;;;;;18.00;17.00;;;;;21.90;32.64;101263.22;5075824;28;45489;-75
2022/05/03 11:36:50;;;;;;;;;19.00;19.00;;;;;21.94;32.11;101259.47;5075124;28;45504;-76
2022/05/03 11:39:17;;;;;;;;;18.00;18.00;;;;;22.14;32.18;101289.88;5075541;28;45713;-78
2022/05/03 11:41:44;;;;;;;;;21.33;20.33;;;;;21.84;32.65;101225.22;5076223;28;45437;-74
2022/05/03 11:44:10;;;;;;;;;24.67;20.67;;;;;22.31;31.91;101291.97;5074117;28;45620;-72
2022/05/03 11:46:41;;;;;;;;;22.00;16.33;;;;;22.42;31.79;101287.94;5075178;28;45510;-72
2022/05/03 11:49:09;;;;;;;;;17.67;17.67;;;;;22.52;31.74;101287.56;5074224;28;45548;-75
2022/05/03 11:57:32;;;;;;;;;17.00;16.33;;;;;22.38;31.73;101274.78;5075996;28;45374;-74
2022/05/03 11:59:59;;;;;;;;;19.33;17.67;;;;;22.54;31.17;101281.28;5076887;28;46204;-74
2022/05/03 12:02:28;;;;;;;;;21.33;17.67;;;;;22.48;30.76;101275.28;5081466;28;45458;-77
2022/05/03 12:05:11;;;;;;;;;23.00;21.67;;;;;22.42;31.03;101274.59;5063511;27;45777;-81
2022/05/03 12:07:51;;;;;;;;;15.00;13.00;;;;;22.51;31.20;101268.03;5062435;28;45453;-74
2022/05/03 12:10:49;;;;;;;;;14.67;14.67;;;;;22.64;30.87;101257.75;5080428;27;45315;-73
2022/05/03 12:13:19;;;;;;;;;18.33;16.67;;;;;22.73;30.52;101270.72;5028856;27;46554;-78